Time;durP1;ratioP1;P1;durP2;ratioP2;P2;SDS_P1;SDS_P2;PMS_P1;PMS_P2;Temp;Humidity;BMP_temperature;BMP_pressure;BME280_temperature;BME280_humidity;BME280_pressure;Samples;Min_cycle;Max_cycle;Signal;HPM_P1;HPM_P2
2022/04/30 02:43:32;;;;;;;32.88;11.43;;;;;;;8.31;56.10;99953.92;1855476;77;22769;-38
2022/04/30 02:45:59;;;;;;;28.62;11.75;;;;;;;8.26;54.86;99957.19;1828007;78;21054;-40
2022/04/30 02:48:25;;;;;;;26.15;10.72;;;;;;;8.20;56.27;99957.38;1828181;78;21001;-41
2022/04/30 02:50:55;;;;;;;26.23;11.50;;;;;;;8.14;55.37;99947.97;1828399;78;21538;-42
2022/04/30 02:53:19;;;;;;;30.05;12.35;;;;;;;8.09;56.58;99947.27;1828574;78;21002;-43
2022/04/30 02:55:45;;;;;;;24.98;11.90;;;;;;;8.07;55.91;99947.32;1829450;78;20983;-38
2022/04/30 03:00:54;;;;;;;25.80;11.90;;;;;;;8.02;56.82;99946.65;1829337;78;21453;-40
2022/04/30 03:03:21;;;;;;;37.40;12.63;;;;;;;8.00;57.40;99943.20;1829413;78;21464;-41
2022/04/30 03:05:50;;;;;;;25.75;11.10;;;;;;;7.98;57.67;99946.33;1829802;78;20970;-36
2022/04/30 03:08:19;;;;;;;27.67;11.97;;;;;;;7.98;56.59;99939.78;1829260;78;20971;-40
2022/04/30 03:10:47;;;;;;;25.88;11.75;;;;;;;7.97;56.96;99942.48;1829415;78;20963;-41
2022/04/30 03:13:14;;;;;;;29.63;12.13;;;;;;;7.97;57.12;99944.63;1829409;78;20959;-40
2022/04/30 03:15:45;;;;;;;34.45;12.85;;;;;;;7.92;57.55;99940.47;1829483;78;21423;-38
2022/04/30 03:23:37;;;;;;;29.15;12.93;;;;;;;7.84;58.68;99944.20;1829406;78;20947;-48
2022/04/30 03:26:05;;;;;;;32.53;12.37;;;;;;;7.85;57.42;99947.20;1829454;78;21025;-40
2022/04/30 03:28:32;;;;;;;31.12;12.55;;;;;;;7.83;57.71;99952.09;1829408;78;21014;-45
2022/04/30 03:30:59;;;;;;;31.45;12.88;;;;;;;7.84;57.12;99944.62;1829491;78;21417;-37
2022/04/30 03:33:26;;;;;;;33.80;13.00;;;;;;;7.84;58.25;99952.48;1829688;78;21467;-38
2022/04/30 03:35:52;;;;;;;37.60;13.87;;;;;;;7.81;58.08;99950.84;1829617;78;20982;-38
2022/04/30 03:38:18;;;;;;;37.58;13.98;;;;;;;7.81;58.21;99944.75;1829347;78;21013;-40
2022/04/30 03:40:43;;;;;;;40.95;13.70;;;;;;;7.88;57.29;99943.64;1829408;78;21077;-36
2022/04/30 03:43:09;;;;;;;31.65;12.55;;;;;;;7.88;57.13;99945.80;1813440;78;21015;-38
2022/04/30 03:45:36;;;;;;;30.27;12.82;;;;;;;7.92;58.32;99937.84;1807884;79;21523;-38
2022/04/30 03:48:03;;;;;;;39.63;13.20;;;;;;;7.92;58.60;99936.53;1808048;79;21006;-36
2022/04/30 03:50:29;;;;;;;40.53;13.77;;;;;;;7.93;59.27;99933.88;1808090;79;20975;-40
2022/04/30 03:52:55;;;;;;;27.17;12.53;;;;;;;7.90;59.35;99933.96;1807686;79;21437;-42
2022/04/30 03:55:22;;;;;;;32.08;14.00;;;;;;;7.91;59.77;99932.19;1807504;79;21034;-40
2022/04/30 03:57:48;;;;;;;37.53;13.55;;;;;;;7.92;59.54;99940.00;1807415;79;20979;-41
2022/04/30 04:00:15;;;;;;;28.83;12.90;;;;;;;7.96;58.61;99940.29;1807269;79;20983;-37
2022/04/30 04:02:43;;;;;;;30.82;12.15;;;;;;;8.00;59.16;99935.34;1807397;79;21413;-40
2022/04/30 04:05:12;;;;;;;35.68;13.05;;;;;;;8.01;59.89;99933.59;1778830;79;20991;-41
2022/04/30 04:07:40;;;;;;;33.73;13.38;;;;;;;8.00;59.99;99932.72;1806873;79;21476;-41
2022/04/30 04:10:09;;;;;;;35.85;13.32;;;;;;;8.05;59.59;99939.97;1806117;79;21746;-43
2022/04/30 04:12:35;;;;;;;40.05;13.75;;;;;;;8.12;58.97;99939.78;1807250;79;20987;-39
2022/04/30 04:17:44;;;;;;;47.88;16.10;;;;;;;8.25;58.36;99952.84;1807276;79;21449;-40
2022/04/30 04:20:17;;;;;;;53.95;14.40;;;;;;;8.27;58.01;99951.02;1807263;79;21022;-40
2022/04/30 04:22:41;;;;;;;52.78;15.50;;;;;;;8.28;57.73;99947.50;1805905;79;20975;-37
2022/04/30 04:27:58;;;;;;;54.25;15.58;;;;;;;8.31;57.59;99960.47;1807246;79;20971;-44
2022/04/30 04:30:25;;;;;;;54.95;15.40;;;;;;;8.29;57.71;99954.44;1805670;79;20972;-40
2022/04/30 04:32:51;;;;;;;52.98;15.75;;;;;;;8.29;58.09;99958.83;1805744;79;20979;-41
2022/04/30 04:35:17;;;;;;;57.55;14.58;;;;;;;8.32;57.75;99956.95;1807324;79;21520;-41
2022/04/30 04:37:44;;;;;;;51.45;15.68;;;;;;;8.34;57.86;99960.84;1807554;79;20986;-43
2022/04/30 04:40:12;;;;;;;68.40;15.13;;;;;;;8.39;58.19;99960.23;1807379;79;21022;-39
2022/04/30 04:42:39;;;;;;;55.12;15.43;;;;;;;8.43;57.67;99961.39;1811309;79;21000;-44
2022/04/30 04:45:06;;;;;;;54.25;15.05;;;;;;;8.45;58.19;99958.25;1817692;79;20986;-39
2022/04/30 04:47:40;;;;;;;48.45;15.58;;;;;;;8.53;57.69;99963.24;1817823;79;20991;-44
2022/04/30 04:50:09;;;;;;;58.10;14.83;;;;;;;8.62;58.08;99959.41;1817494;79;21577;-41
2022/04/30 04:52:36;;;;;;;47.75;15.00;;;;;;;8.69;58.03;99958.27;1817478;79;20994;-41
2022/04/30 04:55:03;;;;;;;70.72;15.95;;;;;;;8.76;57.82;99958.45;1817834;79;21590;-41
2022/04/30 04:57:29;;;;;;;54.53;16.50;;;;;;;8.84;57.79;99954.22;1817514;79;21599;-39
2022/04/30 04:59:55;;;;;;;61.18;17.05;;;;;;;8.93;57.61;99955.64;1817455;79;20983;-40
2022/04/30 05:02:21;;;;;;;66.80;17.52;;;;;;;9.01;57.46;99952.29;1817449;79;20952;-38
2022/04/30 05:04:47;;;;;;;37.58;14.73;;;;;;;9.11;56.98;99959.34;1817530;79;20966;-42
2022/04/30 05:07:13;;;;;;;57.85;14.38;;;;;;;9.21;56.75;99962.86;1817472;79;20955;-44
2022/04/30 05:09:39;;;;;;;40.20;14.03;;;;;;;9.32;56.56;99957.66;1817453;79;21026;-46
2022/04/30 05:12:07;;;;;;;47.95;14.07;;;;;;;9.44;56.22;99957.62;1817388;79;20987;-45
2022/04/30 05:14:34;;;;;;;41.42;14.35;;;;;;;9.56;56.51;99961.91;1817490;79;20959;-41
2022/04/30 05:17:01;;;;;;;32.03;10.90;;;;;;;9.69;56.04;99966.67;1817786;79;20955;-43
2022/04/30 05:19:27;;;;;;;21.95;8.43;;;;;;;9.82;55.49;99968.34;1817712;79;20955;-43
2022/04/30 05:21:53;;;;;;;20.25;8.78;;;;;;;9.98;53.96;99965.00;1817539;79;20975;-46
2022/04/30 05:24:19;;;;;;;26.25;9.20;;;;;;;10.14;53.54;99955.17;1817580;79;20986;-43
2022/04/30 05:26:45;;;;;;;15.93;8.60;;;;;;;10.25;53.27;99955.55;1817517;79;20963;-39
2022/04/30 05:29:11;;;;;;;18.30;8.93;;;;;;;10.38;52.22;99959.38;1817476;79;21019;-47
2022/04/30 05:31:36;;;;;;;24.57;8.40;;;;;;;10.54;52.54;99950.83;1817428;79;20987;-43
2022/04/30 05:34:02;;;;;;;22.85;8.30;;;;;;;10.67;51.94;99953.29;1817460;79;20984;-43
2022/04/30 05:36:28;;;;;;;17.32;8.93;;;;;;;10.81;51.48;99950.52;1794880;79;21011;-42
2022/04/30 05:38:54;;;;;;;20.70;9.08;;;;;;;10.93;51.24;99957.38;1817429;79;20959;-42
2022/04/30 05:41:19;;;;;;;19.70;8.68;;;;;;;11.04;50.80;99956.89;1817362;79;21026;-39
2022/04/30 05:43:45;;;;;;;24.87;9.28;;;;;;;11.16;50.65;99953.28;1809849;79;21011;-41
2022/04/30 05:46:13;;;;;;;25.25;8.75;;;;;;;11.25;50.37;99950.22;1807365;79;21618;-41
2022/04/30 05:48:39;;;;;;;19.65;8.78;;;;;;;11.36;49.99;99950.55;1807544;79;20971;-47
2022/04/30 05:51:05;;;;;;;24.32;8.88;;;;;;;11.47;49.91;99950.03;1807176;79;21022;-40
2022/04/30 05:53:31;;;;;;;19.98;9.65;;;;;;;11.57;50.00;99950.42;1807141;79;21018;-39
2022/04/30 05:55:57;;;;;;;23.85;8.75;;;;;;;11.67;49.74;99951.22;1807092;79;20975;-37
2022/04/30 05:58:23;;;;;;;16.82;7.45;;;;;;;11.76;49.23;99950.39;1807121;79;20960;-41
2022/04/30 06:00:50;;;;;;;20.08;8.10;;;;;;;11.86;48.52;99957.77;1807241;79;21457;-43
2022/04/30 06:03:15;;;;;;;17.45;7.55;;;;;;;11.95;47.45;99955.61;1807108;79;20983;-40
2022/04/30 06:05:41;;;;;;;18.20;7.05;;;;;;;12.06;47.51;99949.33;1807151;79;20956;-39
2022/04/30 06:08:08;;;;;;;35.17;16.85;;;;;;;12.15;46.78;99954.16;1807077;79;21051;-38
2022/04/30 06:10:34;;;;;;;25.32;13.15;;;;;;;12.23;45.63;99958.55;1807337;78;20995;-38
2022/04/30 06:13:00;;;;;;;13.32;8.75;;;;;;;12.33;46.12;99961.56;1807151;79;21026;-36
2022/04/30 06:15:26;;;;;;;19.35;8.05;;;;;;;12.42;45.91;99961.55;1807120;78;21034;-43
2022/04/30 06:17:52;;;;;;;13.48;5.97;;;;;;;12.51;45.64;99964.19;1807153;79;20987;-43
2022/04/30 06:20:18;;;;;;;9.68;5.62;;;;;;;12.56;44.78;99952.45;1807216;79;20948;-38
2022/04/30 06:22:44;;;;;;;17.80;5.83;;;;;;;12.64;44.64;99948.08;1807136;79;21528;-41
2022/04/30 06:25:13;;;;;;;9.38;5.85;;;;;;;12.68;44.31;99954.44;1807079;79;20960;-41
2022/04/30 06:27:39;;;;;;;11.43;5.17;;;;;;;12.72;44.16;99949.86;1807135;79;20991;-41
2022/04/30 06:30:08;;;;;;;13.55;4.87;;;;;;;12.78;43.90;99946.03;1807416;79;20983;-42
2022/04/30 06:32:34;;;;;;;8.53;3.90;;;;;;;12.85;44.18;99945.61;1778424;79;21026;-40
2022/04/30 06:35:02;;;;;;;9.73;3.25;;;;;;;12.93;43.62;99949.14;1807114;79;21461;-42
2022/04/30 06:37:28;;;;;;;7.78;4.10;;;;;;;13.02;43.52;99947.34;1807088;79;21297;-42
2022/04/30 06:39:54;;;;;;;5.75;3.65;;;;;;;13.11;42.47;99958.33;1807400;79;21061;-42
2022/04/30 06:42:20;;;;;;;5.10;2.00;;;;;;;13.18;41.25;99952.61;1807333;79;20992;-36
2022/04/30 06:44:47;;;;;;;2.52;1.90;;;;;;;13.23;38.31;99955.86;1812661;78;20988;-42
2022/04/30 06:47:14;;;;;;;3.87;1.92;;;;;;;13.33;39.90;99960.17;1812755;79;21507;-41
2022/04/30 06:49:40;;;;;;;11.18;2.47;;;;;;;13.34;39.26;99951.33;1812746;79;21017;-39
2022/04/30 06:52:07;;;;;;;1.65;1.52;;;;;;;13.43;38.17;99957.41;1812445;79;20987;-42
2022/04/30 06:57:21;;;;;;;5.83;2.02;;;;;;;13.59;38.51;99958.72;1812660;79;21457;-41
2022/04/30 06:59:51;;;;;;;2.95;1.70;;;;;;;13.68;38.78;99957.80;1812139;79;21472;-47
2022/04/30 07:02:22;;;;;;;3.70;1.80;;;;;;;13.75;38.21;99962.66;1811914;79;21476;-45
2022/04/30 07:04:50;;;;;;;6.05;2.00;;;;;;;13.88;38.12;99957.95;1810572;79;20973;-46
2022/04/30 07:07:19;;;;;;;2.70;1.98;;;;;;;14.00;38.62;99955.92;1812565;78;20991;-45
2022/04/30 07:09:45;;;;;;;4.12;1.80;;;;;;;14.11;37.26;99953.97;1811517;79;20971;-44
2022/04/30 07:12:13;;;;;;;5.22;1.55;;;;;;;14.21;37.42;99948.52;1812882;79;20991;-40
2022/04/30 07:14:40;;;;;;;;;;;;;;;14.27;36.80;99956.56;1815341;78;20978;-41
2022/04/30 07:17:11;;;;;;;2.70;1.50;;;;;;;14.33;35.55;99953.05;1812602;79;20110;-40
2022/04/30 07:19:37;;;;;;;8.58;1.85;;;;;;;14.23;33.57;99956.37;1812528;79;20971;-43
2022/04/30 07:22:04;;;;;;;10.25;1.65;;;;;;;14.36;36.21;99958.17;1812870;79;21501;-44
2022/04/30 07:24:33;;;;;;;4.20;1.67;;;;;;;14.47;36.26;99956.68;1812700;79;21518;-43
2022/04/30 07:27:00;;;;;;;3.90;1.70;;;;;;;14.54;36.09;99950.91;1812573;79;20991;-43
2022/04/30 07:29:26;;;;;;;6.37;2.08;;;;;;;14.61;36.16;99949.23;1812777;79;21468;-44
2022/04/30 07:31:54;;;;;;;5.15;1.65;;;;;;;14.65;35.22;99948.97;1812787;79;20991;-40
2022/04/30 07:34:19;;;;;;;;;;;;;;;14.75;35.24;99949.23;1815429;78;21006;-42
2022/04/30 07:36:45;;;;;;;6.40;1.75;;;;;;;14.78;33.60;99947.73;1812766;78;20471;-40
2022/04/30 07:39:11;;;;;;;7.28;1.87;;;;;;;14.87;35.05;99952.45;1812686;79;20999;-40
2022/04/30 07:41:37;;;;;;;4.03;1.60;;;;;;;14.94;34.93;99953.77;1812763;79;20991;-41
2022/04/30 07:44:03;;;;;;;6.62;1.80;;;;;;;14.99;34.57;99953.48;1815769;79;21007;-42
2022/04/30 07:46:30;;;;;;;9.60;2.30;;;;;;;15.05;34.32;99949.59;1817593;79;20955;-40
2022/04/30 07:48:56;;;;;;;2.58;1.50;;;;;;;15.10;33.72;99950.16;1817661;79;21029;-43
2022/04/30 07:51:34;;;;;;;4.17;1.55;;;;;;;15.14;33.71;99954.31;1817527;79;20952;-42
2022/04/30 07:54:05;;;;;;;6.25;1.85;;;;;;;15.18;33.65;99954.48;1817496;79;20994;-41
2022/04/30 07:56:31;;;;;;;4.05;1.70;;;;;;;15.25;33.48;99957.59;1817582;79;20995;-43
2022/04/30 07:58:57;;;;;;;4.92;1.80;;;;;;;15.30;33.06;99957.67;1817449;79;20961;-48
2022/04/30 08:01:23;;;;;;;3.27;1.67;;;;;;;15.38;33.31;99953.69;1817550;79;20967;-44
2022/04/30 08:03:48;;;;;;;2.50;1.70;;;;;;;15.42;32.65;99957.34;1817657;79;21523;-42
2022/04/30 08:06:14;;;;;;;4.60;2.00;;;;;;;15.48;32.21;99954.31;1817631;79;21583;-40
2022/04/30 08:08:40;;;;;;;12.47;1.95;;;;;;;15.57;32.43;99951.52;1817529;79;20959;-38
2022/04/30 08:11:06;;;;;;;4.85;1.90;;;;;;;15.70;32.05;99952.42;1817593;79;21018;-43
2022/04/30 08:13:32;;;;;;;3.85;2.02;;;;;;;15.80;31.61;99948.71;1817555;79;20983;-42
2022/04/30 08:15:58;;;;;;;4.83;2.00;;;;;;;15.86;31.47;99945.67;1817566;79;21021;-44
2022/04/30 08:18:27;;;;;;;3.58;1.77;;;;;;;16.03;31.85;99937.89;1817694;79;21539;-38
2022/04/30 08:20:53;;;;;;;3.67;2.12;;;;;;;16.10;31.19;99944.48;1817528;79;20994;-43
2022/04/30 08:23:19;;;;;;;3.17;1.90;;;;;;;16.18;31.13;99952.41;1817466;79;20967;-39
2022/04/30 08:25:45;;;;;;;24.92;2.77;;;;;;;16.22;30.70;99956.54;1817603;79;21494;-43
2022/04/30 08:28:11;;;;;;;6.45;2.12;;;;;;;16.21;30.92;99952.17;1817423;79;21491;-44
2022/04/30 08:30:37;;;;;;;3.95;1.87;;;;;;;16.14;30.73;99953.57;1817530;79;20990;-41
2022/04/30 08:33:03;;;;;;;4.05;1.62;;;;;;;16.12;29.75;99966.45;1817489;79;21009;-41
2022/04/30 08:35:29;;;;;;;2.70;1.98;;;;;;;16.13;29.78;99958.01;1817541;79;20991;-47
2022/04/30 08:37:54;;;;;;;8.50;1.77;;;;;;;16.02;29.64;99961.87;1817507;79;21507;-39
2022/04/30 08:40:21;;;;;;;5.85;1.87;;;;;;;15.95;29.02;99958.77;1817498;79;21030;-42
2022/04/30 08:42:46;;;;;;;2.33;1.60;;;;;;;15.99;28.85;99958.95;1817274;78;21061;-41
2022/04/30 08:45:12;;;;;;;4.83;1.30;;;;;;;16.08;28.79;99964.09;1812578;79;21022;-43
2022/04/30 08:47:40;;;;;;;3.30;2.33;;;;;;;16.24;29.12;99955.95;1812667;79;20979;-43
2022/04/30 08:50:11;;;;;;;7.65;1.85;;;;;;;16.28;29.01;99956.11;1812594;79;20963;-40
2022/04/30 08:52:38;;;;;;;1.52;1.42;;;;;;;16.37;28.02;99956.83;1812627;79;21510;-40
2022/04/30 08:55:05;;;;;;;4.78;1.72;;;;;;;16.43;26.97;99957.72;1812735;79;20963;-40
2022/04/30 08:57:31;;;;;;;;;;;;;;;16.59;28.91;99957.52;1815324;79;21007;-42
2022/04/30 08:59:58;;;;;;;3.37;1.70;;;;;;;16.67;27.98;99960.95;1812611;79;20102;-37
2022/04/30 09:02:25;;;;;;;;;;;;;;;16.72;28.27;99950.87;1815508;79;21017;-42
2022/04/30 09:04:51;;;;;;;2.60;1.70;;;;;;;16.85;27.13;99958.36;1812914;79;20134;-42
2022/04/30 09:07:25;;;;;;;3.60;2.22;;;;;;;17.04;28.51;99957.05;1812579;79;20960;-42
2022/04/30 09:09:58;;;;;;;6.08;1.72;;;;;;;17.31;28.36;99960.84;1812084;79;21030;-42
2022/04/30 09:12:26;;;;;;;3.62;2.00;;;;;;;17.67;27.91;99959.11;1810682;79;21030;-44
2022/04/30 09:14:52;;;;;;;3.87;2.05;;;;;;;17.92;26.84;99958.62;1812702;79;21003;-39
2022/04/30 09:17:18;;;;;;;3.42;1.87;;;;;;;18.20;27.90;99950.25;1812565;79;20968;-40
2022/04/30 09:19:57;;;;;;;3.72;2.42;;;;;;;18.56;27.43;99951.03;1812573;78;20999;-40
2022/04/30 09:22:33;;;;;;;7.22;1.80;;;;;;;18.68;25.85;99947.04;1812523;79;20987;-41
2022/04/30 09:25:03;;;;;;;4.97;1.85;;;;;;;18.58;26.73;99950.42;1812895;79;21471;-37
2022/04/30 09:27:31;;;;;;;3.37;2.15;;;;;;;18.70;26.88;99946.43;1812611;79;21031;-39
2022/04/30 09:29:58;;;;;;;3.60;1.70;;;;;;;19.09;27.67;99938.45;1812645;79;21515;-42
2022/04/30 09:32:28;;;;;;;4.10;2.25;;;;;;;19.42;25.49;99934.50;1812789;79;20991;-43
2022/04/30 09:37:41;;;;;;;4.42;1.62;;;;;;;20.71;26.80;99929.81;1811743;79;20975;-41
2022/04/30 09:40:19;;;;;;;3.75;1.80;;;;;;;21.61;26.23;99933.45;1811385;78;21621;-42
2022/04/30 09:42:46;;;;;;;3.98;1.90;;;;;;;22.58;25.62;99935.15;1811841;79;21481;-42
2022/04/30 09:45:32;;;;;;;3.00;1.57;;;;;;;23.35;23.85;99929.05;1807519;79;21027;-42
2022/04/30 09:48:02;;;;;;;4.30;1.92;;;;;;;23.76;23.55;99934.83;1806568;79;21018;-40
2022/04/30 09:56:10;;;;;;;2.75;2.05;;;;;;;23.52;22.73;99929.22;1806986;79;21002;-41
2022/04/30 09:58:40;;;;;;;3.33;2.17;;;;;;;22.92;22.49;99927.02;1804806;79;21111;-39
2022/04/30 10:01:08;;;;;;;10.60;2.47;;;;;;;22.76;22.72;99922.33;1806133;79;21034;-40
2022/04/30 10:03:34;;;;;;;3.55;2.02;;;;;;;22.96;22.46;99918.55;1806914;79;21124;-41
2022/04/30 10:06:03;;;;;;;3.10;1.80;;;;;;;22.85;21.86;99918.75;1807134;78;21007;-41
2022/04/30 10:08:39;;;;;;;2.95;1.70;;;;;;;23.04;21.57;99922.31;1806814;79;21042;-43
2022/04/30 10:11:26;;;;;;;4.53;1.98;;;;;;;22.54;21.37;99918.16;1777786;79;21492;-39
2022/04/30 10:14:14;;;;;;;;;;;;;;;22.42;21.34;99916.16;1809480;79;21039;-43
2022/04/30 10:17:10;;;;;;;3.20;1.90;;;;;;;22.23;20.12;99913.86;1807210;79;20126;-39
2022/04/30 10:19:20;;;;;;;8.20;2.33;;;;;;;22.08;20.45;99919.80;1802225;79;20983;-39
2022/04/30 10:21:49;;;;;;;4.17;2.47;;;;;;;21.83;21.57;99923.45;1805894;78;21059;-42
2022/04/30 10:24:17;;;;;;;3.95;2.17;;;;;;;21.54;21.69;99919.40;1775569;79;21564;-40
2022/04/30 10:27:00;;;;;;;4.87;1.90;;;;;;;21.40;21.40;99912.12;1807263;79;20986;-39
2022/04/30 10:29:26;;;;;;;3.22;2.05;;;;;;;21.23;21.62;99909.64;1807230;78;21029;-41
2022/04/30 10:31:52;;;;;;;4.42;2.27;;;;;;;21.30;21.46;99913.92;1807153;79;21040;-38
2022/04/30 10:34:30;;;;;;;4.28;2.50;;;;;;;21.08;21.84;99911.88;1807163;79;21031;-39
2022/04/30 10:36:56;;;;;;;12.28;2.77;;;;;;;21.06;21.85;99910.30;1807231;79;21022;-41
2022/04/30 10:39:22;;;;;;;3.10;2.67;;;;;;;21.06;22.05;99903.11;1807169;79;21427;-38
2022/04/30 10:41:54;;;;;;;7.05;2.90;;;;;;;21.20;22.50;99904.56;1807016;79;20980;-43
2022/04/30 10:44:31;;;;;;;5.37;2.85;;;;;;;21.40;22.37;99902.75;1809332;79;21007;-43
2022/04/30 10:47:14;;;;;;;4.15;2.55;;;;;;;21.49;22.72;99898.94;1812657;79;20999;-38
2022/04/30 10:49:40;;;;;;;5.87;2.40;;;;;;;21.72;22.78;99895.45;1812421;79;21007;-43
2022/04/30 10:52:09;;;;;;;4.03;2.02;;;;;;;21.95;22.05;99890.15;1812602;79;21038;-39
2022/04/30 10:54:36;;;;;;;9.08;2.30;;;;;;;22.10;21.42;99891.88;1812524;79;21041;-38
2022/04/30 10:57:04;;;;;;;4.22;2.10;;;;;;;22.32;20.66;99895.23;1812622;79;21034;-42
2022/04/30 10:59:31;;;;;;;2.55;1.87;;;;;;;23.10;21.01;99898.46;1812589;79;20995;-41
2022/04/30 11:01:56;;;;;;;3.25;2.17;;;;;;;23.27;20.60;99894.10;1812459;79;20983;-40
2022/04/30 11:04:23;;;;;;;2.17;1.90;;;;;;;23.64;19.72;99895.78;1812530;79;20959;-41
2022/04/30 11:06:52;;;;;;;5.00;1.80;;;;;;;24.20;19.64;99886.17;1813047;79;21038;-42
2022/04/30 11:09:20;;;;;;;2.72;1.90;;;;;;;23.98;18.24;99891.06;1812741;79;20998;-42
2022/04/30 11:11:48;;;;;;;4.33;1.70;;;;;;;24.02;17.55;99883.02;1812658;78;21448;-42
2022/04/30 11:14:16;;;;;;;1.85;1.57;;;;;;;24.01;18.83;99881.31;1812855;79;20963;-41
2022/04/30 11:16:45;;;;;;;2.90;1.57;;;;;;;23.71;18.46;99880.73;1812678;78;21425;-43
2022/04/30 11:19:14;;;;;;;2.15;1.62;;;;;;;22.40;18.46;99876.61;1812710;79;21018;-42
2022/04/30 11:21:51;;;;;;;4.20;1.70;;;;;;;21.96;19.10;99881.64;1812705;79;20974;-43
2022/04/30 11:24:31;;;;;;;6.30;1.65;;;;;;;22.29;19.08;99878.14;1812139;79;20967;-42
2022/04/30 11:27:04;;;;;;;4.17;2.12;;;;;;;22.27;19.19;99882.30;1812794;79;20967;-40
2022/04/30 11:29:33;;;;;;;5.28;1.90;;;;;;;22.32;19.57;99873.80;1810406;79;20975;-41
2022/04/30 11:32:00;;;;;;;4.65;1.30;;;;;;;22.13;19.39;99874.69;1812021;78;21453;-38
2022/04/30 11:34:26;;;;;;;2.08;1.72;;;;;;;22.47;18.66;99868.84;1812886;79;21425;-40
2022/04/30 11:37:00;;;;;;;3.08;1.52;;;;;;;22.31;19.08;99870.80;1812673;79;20998;-40
2022/04/30 11:39:25;;;;;;;6.20;1.20;;;;;;;22.36;18.71;99865.34;1811519;79;21858;-41
2022/04/30 11:41:53;;;;;;;;;;;;;;;21.71;17.96;99875.88;1815332;78;21023;-40
2022/04/30 11:44:25;;;;;;;2.15;1.60;;;;;;;21.31;17.73;99869.31;1812565;79;20101;-46
2022/04/30 11:46:52;;;;;;;2.62;1.40;;;;;;;21.31;18.29;99867.48;1812662;79;20983;-42
2022/04/30 11:49:24;;;;;;;2.90;1.52;;;;;;;21.25;18.39;99870.22;1812674;79;20990;-38
2022/04/30 11:51:54;;;;;;;1.87;1.20;;;;;;;21.52;18.66;99874.55;1812712;79;20983;-40
2022/04/30 11:54:25;;;;;;;2.83;1.07;;;;;;;21.44;17.96;99868.03;1812692;79;20976;-38
2022/04/30 11:56:52;;;;;;;1.20;1.05;;;;;;;21.18;17.96;99864.24;1812633;79;21115;-41
2022/04/30 11:59:35;;;;;;;2.60;2.40;;;;;;;21.41;18.45;99849.61;1812746;79;21467;-41
2022/04/30 12:02:08;;;;;;;4.10;1.70;;;;;;;21.65;18.47;99855.89;1811560;79;20987;-41
2022/04/30 12:04:42;;;;;;;1.30;1.05;;;;;;;22.09;18.45;99850.03;1812645;79;20982;-41
2022/04/30 12:07:11;;;;;;;10.05;1.20;;;;;;;22.54;18.06;99849.80;1812630;79;21003;-40
2022/04/30 12:09:42;;;;;;;1.55;1.10;;;;;;;23.02;17.11;99847.36;1812616;78;21003;-41
2022/04/30 12:12:23;;;;;;;2.83;1.17;;;;;;;23.64;16.93;99846.11;1808079;79;20984;-44
2022/04/30 12:14:53;;;;;;;1.32;1.00;;;;;;;24.71;16.58;99845.45;1812698;78;21073;-41
2022/04/30 12:17:32;;;;;;;1.72;0.75;;;;;;;25.36;15.76;99847.95;1811167;79;20995;-44
2022/04/30 12:25:50;;;;;;;2.37;1.10;;;;;;;24.88;14.79;99844.47;1812609;79;21023;-41
2022/04/30 12:28:16;;;;;;;2.02;1.52;;;;;;;24.82;15.48;99842.45;1812872;78;20991;-43
2022/04/30 12:30:55;;;;;;;1.75;1.35;;;;;;;24.45;15.80;99834.70;1812951;79;20987;-40
2022/04/30 12:33:22;;;;;;;3.22;1.32;;;;;;;23.89;15.88;99836.94;1812590;79;20975;-41
2022/04/30 12:35:56;;;;;;;4.78;1.50;;;;;;;23.93;15.76;99834.27;1812911;78;20975;-41
2022/04/30 12:38:23;;;;;;;3.75;1.40;;;;;;;23.79;15.99;99842.86;1811432;79;21574;-40
2022/04/30 12:40:50;;;;;;;3.37;2.47;;;;;;;23.58;16.59;99841.37;1812717;79;21002;-41
2022/04/30 12:43:18;;;;;;;1.60;1.32;;;;;;;23.74;16.44;99832.10;1812510;79;20956;-38
2022/04/30 12:45:46;;;;;;;2.80;1.52;;;;;;;24.00;16.78;99829.95;1815995;79;21493;-41
2022/04/30 12:48:12;;;;;;;;;;;;;;;24.86;16.27;99830.86;1820156;79;20963;-42
2022/04/30 12:50:39;;;;;;;3.23;1.90;;;;;;;24.85;15.92;99816.58;1817407;79;20110;-42
2022/04/30 12:53:09;;;;;;;2.83;1.55;;;;;;;25.07;16.19;99815.11;1817442;79;20963;-37
2022/04/30 12:55:34;;;;;;;5.75;2.80;;;;;;;25.25;16.06;99817.69;1816398;79;20943;-37
2022/04/30 12:57:59;;;;;;;2.67;1.37;;;;;;;25.12;16.30;99816.45;1817327;79;20995;-37
2022/04/30 13:00:25;;;;;;;1.80;1.25;;;;;;;25.08;16.00;99812.73;1817660;79;20990;-35
2022/04/30 13:02:52;;;;;;;4.12;2.60;;;;;;;24.25;16.50;99801.86;1817178;79;20959;-43
2022/04/30 13:05:17;;;;;;;1.95;1.50;;;;;;;23.90;17.54;99805.03;1817522;79;20983;-41
2022/04/30 13:07:44;;;;;;;2.67;1.87;;;;;;;23.82;17.24;99795.59;1817153;79;20963;-39
2022/04/30 13:15:42;;;;;;;5.95;2.15;;;;;;;22.40;19.39;99795.72;1817453;79;21449;-41
2022/04/30 13:18:08;;;;;;;3.27;1.70;;;;;;;22.60;18.77;99796.96;1817508;79;21042;-40
2022/04/30 13:20:35;;;;;;;2.02;1.85;;;;;;;22.42;19.18;99791.55;1817688;79;21038;-41
2022/04/30 13:23:02;;;;;;;4.87;1.90;;;;;;;21.92;19.58;99795.41;1817691;79;20968;-40
2022/04/30 13:25:29;;;;;;;4.40;1.55;;;;;;;21.92;19.74;99788.71;1817644;79;20985;-42
2022/04/30 13:27:56;;;;;;;3.00;2.00;;;;;;;21.78;20.11;99788.66;1817538;79;21015;-42
2022/04/30 13:30:23;;;;;;;5.90;2.00;;;;;;;21.52;19.56;99781.76;1817637;79;21472;-38
2022/04/30 13:32:49;;;;;;;;;;;;;;;21.53;19.76;99787.95;1820166;79;21436;-38
2022/04/30 13:35:16;;;;;;;6.40;2.17;;;;;;;21.17;19.97;99788.48;1817574;79;20438;-37
2022/04/30 13:37:42;;;;;;;;;;;;;;;21.31;19.68;99771.18;1820152;79;21468;-44
2022/04/30 13:40:14;;;;;;;3.58;1.50;;;;;;;20.93;19.94;99779.55;1817814;79;20094;-39
2022/04/30 13:42:41;;;;;;;3.30;1.80;;;;;;;21.21;20.09;99779.69;1817432;79;20982;-38
2022/04/30 13:45:09;;;;;;;6.87;2.25;;;;;;;21.07;20.20;99775.62;1817342;79;21054;-39
2022/04/30 13:47:35;;;;;;;;;;;;;;;21.08;20.29;99775.49;1820193;79;20963;-42
2022/04/30 13:50:04;;;;;;;17.32;9.80;;;;;;;20.98;20.31;99774.64;1817632;79;20090;-41
2022/04/30 13:52:29;;;;;;;7.37;3.45;;;;;;;20.98;20.12;99771.13;1817248;79;20972;-41
2022/04/30 13:54:55;;;;;;;2.85;2.15;;;;;;;20.68;20.37;99768.42;1817418;79;20993;-39
2022/04/30 13:57:21;;;;;;;2.12;1.35;;;;;;;20.64;20.27;99769.66;1817477;79;21837;-38
2022/04/30 13:59:46;;;;;;;12.73;4.83;;;;;;;20.58;20.31;99766.18;1817476;79;20986;-41
2022/04/30 14:02:12;;;;;;;5.42;1.60;;;;;;;20.45;20.57;99762.42;1817350;79;20955;-42
2022/04/30 14:04:38;;;;;;;5.90;3.47;;;;;;;20.33;20.06;99767.02;1817466;79;20983;-42
2022/04/30 14:07:05;;;;;;;5.67;1.85;;;;;;;20.30;20.68;99763.77;1817424;79;20995;-39
2022/04/30 14:09:31;;;;;;;4.42;3.72;;;;;;;20.21;20.64;99757.45;1817593;79;21475;-42
2022/04/30 14:11:57;;;;;;;6.62;4.33;;;;;;;20.37;20.77;99758.24;1817472;79;21586;-43
2022/04/30 14:19:51;;;;;;;14.50;2.80;;;;;;;20.51;21.49;99751.68;1817517;79;21038;-37
2022/04/30 14:22:18;;;;;;;8.18;2.90;;;;;;;20.50;21.33;99747.30;1817140;79;21488;-38
2022/04/30 14:24:44;;;;;;;5.30;3.77;;;;;;;20.63;21.24;99749.28;1817794;79;20944;-37
2022/04/30 14:27:10;;;;;;;2.22;1.92;;;;;;;20.70;21.15;99749.55;1817591;79;20978;-39
2022/04/30 14:29:35;;;;;;;3.35;1.90;;;;;;;20.79;21.37;99741.20;1817500;79;21123;-35
2022/04/30 14:32:01;;;;;;;14.40;8.20;;;;;;;20.71;21.67;99751.26;1817454;79;20998;-37
2022/04/30 14:34:27;;;;;;;3.35;2.52;;;;;;;20.85;21.69;99744.67;1817525;79;20999;-36
2022/04/30 14:36:53;;;;;;;4.70;3.80;;;;;;;20.90;21.38;99742.39;1815539;79;20959;-37
2022/04/30 14:39:19;;;;;;;8.33;3.12;;;;;;;20.88;21.52;99743.90;1811226;79;20994;-37
2022/04/30 14:41:45;;;;;;;4.15;3.62;;;;;;;20.77;21.54;99739.16;1814221;79;20986;-40
2022/04/30 14:44:12;;;;;;;9.43;6.25;;;;;;;20.81;21.40;99744.57;1808316;79;21040;-37
2022/04/30 14:46:39;;;;;;;16.80;10.32;;;;;;;20.76;21.88;99736.98;1808128;79;21084;-45
2022/04/30 14:49:05;;;;;;;;;;;;;;;20.67;22.23;99742.67;1811563;79;21064;-38
2022/04/30 14:51:31;;;;;;;8.13;5.45;;;;;;;20.58;23.11;99737.29;1808270;79;20129;-38
2022/04/30 14:53:57;;;;;;;9.30;5.37;;;;;;;20.63;22.55;99737.26;1809518;79;20993;-37
2022/04/30 14:56:23;;;;;;;7.58;3.47;;;;;;;20.51;22.65;99735.66;1812385;79;20964;-39
2022/04/30 14:58:49;;;;;;;25.25;10.75;;;;;;;20.48;22.87;99731.91;1809613;78;21027;-38
2022/04/30 15:01:15;;;;;;;13.08;6.85;;;;;;;20.38;23.10;99727.06;1800971;79;21532;-39